createdAt,value
2024-02-14T00:01:20.143Z,98110.59
2024-02-14T00:03:22.735Z,98108.84
2024-02-14T00:05:24.441Z,98114.69
2024-02-14T00:07:27.949Z,98113.34
2024-02-14T00:09:29.434Z,98111.06
2024-02-14T00:11:30.899Z,98111.53
2024-02-14T00:13:35.153Z,98103.00
2024-02-14T00:15:36.942Z,98109.31
2024-02-14T00:17:38.523Z,98109.50
2024-02-14T00:19:40.614Z,98107.09
2024-02-14T00:21:42.195Z,98106.88
2024-02-14T00:23:44.894Z,98096.38
2024-02-14T00:25:46.950Z,98096.56
2024-02-14T00:27:48.906Z,98105.13
2024-02-14T00:29:50.448Z,98095.78
2024-02-14T00:31:51.857Z,98103.25
2024-02-14T00:33:53.447Z,98102.53
2024-02-14T00:35:54.964Z,98106.81
2024-02-14T00:37:56.746Z,98104.81
2024-02-14T00:39:59.219Z,98097.81
2024-02-14T00:42:00.699Z,98106.28
2024-02-14T00:44:02.109Z,98103.63
2024-02-14T00:46:03.589Z,98102.63
2024-02-14T00:48:05.198Z,98123.66
2024-02-14T00:50:06.752Z,98100.75
2024-02-14T00:52:08.146Z,98103.38
2024-02-14T00:54:09.560Z,98096.50
2024-02-14T00:56:11.252Z,98096.50
2024-02-14T00:58:12.602Z,98093.00
2024-02-14T01:00:14.520Z,98104.78
2024-02-14T01:02:15.885Z,98096.88
2024-02-14T01:04:17.558Z,98104.06
2024-02-14T01:06:19.749Z,98104.72
2024-02-14T01:08:21.990Z,98100.63
2024-02-14T01:10:23.413Z,98106.34
2024-02-14T01:12:24.770Z,98107.16
2024-02-14T01:14:26.212Z,98103.72
2024-02-14T01:16:27.894Z,98107.97
2024-02-14T01:18:29.966Z,98105.44
2024-02-14T01:20:31.550Z,98101.22
2024-02-14T01:22:32.964Z,98103.72
2024-02-14T01:24:34.336Z,98098.59
2024-02-14T01:26:35.759Z,98098.47
2024-02-14T01:28:37.163Z,98093.28
2024-02-14T01:30:38.550Z,98105.16
2024-02-14T01:32:40.351Z,98098.31
2024-02-14T01:34:43.787Z,98090.50
2024-02-14T01:36:45.187Z,98085.28
2024-02-14T01:38:46.566Z,98092.94
2024-02-14T01:40:47.999Z,98086.88
2024-02-14T01:42:49.366Z,98090.31
2024-02-14T01:44:50.827Z,98089.53
2024-02-14T01:46:54.050Z,98089.53
2024-02-14T01:48:55.637Z,98086.16
2024-02-14T01:50:57.306Z,98092.94
2024-02-14T01:52:58.688Z,98089.66
2024-02-14T01:55:00.113Z,98082.88
2024-02-14T01:57:01.662Z,98083.84
2024-02-14T01:59:03.086Z,98086.47
2024-02-14T02:01:05.584Z,98074.59
2024-02-14T02:03:07.083Z,98077.22
2024-02-14T02:05:08.612Z,98084.06
2024-02-14T02:07:10.014Z,98085.75
2024-02-14T02:09:11.513Z,98090.88
2024-02-14T02:11:12.972Z,98089.22
2024-02-14T02:13:17.035Z,98090.09
2024-02-14T02:15:18.881Z,98089.25
2024-02-14T02:17:20.287Z,98092.63
2024-02-14T02:19:21.776Z,98089.22
2024-02-14T02:21:25.016Z,98085.88
2024-02-14T02:23:26.636Z,98092.69
2024-02-14T02:25:28.228Z,98092.78
2024-02-14T02:27:29.707Z,98097.03
2024-02-14T02:29:32.384Z,98100.50
2024-02-14T02:31:34.080Z,98090.25
2024-02-14T02:33:35.673Z,98091.97
2024-02-14T02:35:37.270Z,98096.22
2024-02-14T02:37:38.639Z,98089.38
2024-02-14T02:39:40.703Z,98101.31
2024-02-14T02:41:42.116Z,98091.28
2024-02-14T02:43:44.183Z,98094.78
2024-02-14T02:45:45.570Z,98088.81
2024-02-14T02:47:47.799Z,98082.91
2024-02-14T02:49:49.343Z,98089.66
2024-02-14T02:51:50.737Z,98081.09
2024-02-14T02:53:55.294Z,98083.63
2024-02-14T02:55:58.391Z,98091.28
2024-02-14T02:58:00.151Z,98093.78
2024-02-14T03:00:01.846Z,98098.84
2024-02-14T03:02:03.368Z,98097.06
2024-02-14T03:04:04.822Z,98097.84
2024-02-14T03:06:06.365Z,98093.50
2024-02-14T03:08:09.276Z,98093.47
2024-02-14T03:10:10.658Z,98091.72
2024-02-14T03:12:12.218Z,98096.75
2024-02-14T03:14:13.758Z,98098.41
2024-02-14T03:16:16.005Z,98087.25
2024-02-14T03:18:17.490Z,98092.38
2024-02-14T03:20:21.116Z,98092.44
2024-02-14T03:22:22.601Z,98091.66
2024-02-14T03:24:26.476Z,98084.03
2024-02-14T03:26:28.150Z,98084.94
2024-02-14T03:28:30.703Z,98082.47
2024-02-14T03:30:33.315Z,98097.84
2024-02-14T03:32:34.743Z,98084.22
2024-02-14T03:34:37.132Z,98076.56
2024-02-14T03:36:38.699Z,98076.56
2024-02-14T03:38:41.885Z,98078.28
2024-02-14T03:40:43.397Z,98077.47
2024-02-14T03:42:45.222Z,98070.75
2024-02-14T03:44:47.136Z,98072.41
2024-02-14T03:46:49.013Z,98074.19
2024-02-14T03:48:50.635Z,98073.38
2024-02-14T03:50:52.245Z,98064.03
2024-02-14T03:52:54.531Z,98066.63
2024-02-14T03:54:55.896Z,98067.50
2024-02-14T03:56:57.425Z,98071.78
2024-02-14T03:58:58.813Z,98066.72
2024-02-14T04:01:00.289Z,98076.94
2024-02-14T04:03:01.756Z,98076.09
2024-02-14T04:05:08.190Z,98059.91
2024-02-14T04:07:09.878Z,98070.13
2024-02-14T04:09:11.359Z,98066.72
2024-02-14T04:11:14.582Z,98059.91
2024-02-14T04:13:16.519Z,98062.31
2024-02-14T04:15:18.678Z,98059.78
2024-02-14T04:17:20.114Z,98066.66
2024-02-14T04:19:21.652Z,98064.09
2024-02-14T04:21:23.234Z,98059.06
2024-02-14T04:23:26.111Z,98065.13
2024-02-14T04:25:27.572Z,98068.69
2024-02-14T04:27:29.158Z,98068.81
2024-02-14T04:29:31.623Z,98068.09
2024-02-14T04:31:33.055Z,98069.88
2024-02-14T04:33:34.726Z,98065.72
2024-02-14T04:35:36.241Z,98063.22
2024-02-14T04:37:37.631Z,98065.84
2024-02-14T04:39:39.037Z,98063.22
2024-02-14T04:41:53.408Z,98064.88
2024-02-14T04:43:58.919Z,98065.59
2024-02-14T04:46:00.849Z,98060.34
2024-02-14T04:48:03.068Z,98064.41
2024-02-14T04:50:05.333Z,98056.63
2024-02-14T04:52:09.014Z,98056.47
2024-02-14T04:54:11.106Z,98054.66
2024-02-14T04:56:12.507Z,98055.41
2024-02-14T04:58:13.925Z,98053.59
2024-02-14T05:00:15.440Z,97950.22
2024-02-14T05:02:16.929Z,98051.69
2024-02-14T05:04:18.768Z,98057.56
2024-02-14T05:06:20.213Z,98054.13
2024-02-14T05:08:21.854Z,98055.81
2024-02-14T05:10:23.252Z,98050.72
2024-02-14T05:12:24.678Z,98051.53
2024-02-14T05:14:26.143Z,98051.56
2024-02-14T05:16:28.795Z,98055.84
2024-02-14T05:18:30.843Z,98042.34
2024-02-14T05:20:32.846Z,98050.09
2024-02-14T05:22:34.243Z,98046.78
2024-02-14T05:24:38.577Z,98052.75
2024-02-14T05:26:39.987Z,98048.63
2024-02-14T05:28:41.376Z,98045.19
2024-02-14T05:30:42.831Z,98044.34
2024-02-14T05:32:44.341Z,98052.03
2024-02-14T05:34:45.782Z,98057.19
2024-02-14T05:36:47.400Z,98042.72
2024-02-14T05:38:50.101Z,98049.59
2024-02-14T05:40:51.465Z,98051.28
2024-02-14T05:42:52.925Z,98047.91
2024-02-14T05:44:54.341Z,98047.09
2024-02-14T05:46:56.122Z,98038.59
2024-02-14T05:48:58.642Z,98043.69
2024-02-14T05:51:00.267Z,98052.28
2024-02-14T05:53:01.871Z,98040.41
2024-02-14T05:55:04.562Z,98045.47
2024-02-14T05:57:06.539Z,98037.88
2024-02-14T05:59:08.004Z,98048.09
2024-02-14T06:01:09.500Z,98043.88
2024-02-14T06:03:11.009Z,98050.66
2024-02-14T06:05:12.447Z,98054.97
2024-02-14T06:07:13.870Z,98059.22
2024-02-14T06:09:15.256Z,98048.16
2024-02-14T06:11:17.307Z,98052.44
2024-02-14T06:13:18.675Z,98054.13
2024-02-14T06:15:20.166Z,98050.72
2024-02-14T06:17:21.629Z,98053.16
2024-02-14T06:19:23.562Z,98051.44
2024-02-14T06:21:25.055Z,98053.94
2024-02-14T06:23:26.467Z,98050.56
2024-02-14T06:25:28.156Z,98053.88
2024-02-14T06:27:29.667Z,98052.94
2024-02-14T06:29:31.054Z,98055.41
2024-02-14T06:31:32.432Z,98056.13
2024-02-14T06:33:34.015Z,98045.81
2024-02-14T06:35:35.769Z,98060.25
2024-02-14T06:37:45.215Z,98053.44
2024-02-14T06:39:55.033Z,98052.69
2024-02-14T06:41:56.456Z,98048.47
2024-02-14T06:43:58.572Z,98051.88
2024-02-14T06:45:59.993Z,98047.63
2024-02-14T06:48:01.448Z,98043.56
2024-02-14T06:50:02.950Z,98041.06
2024-02-14T06:52:04.387Z,98045.41
2024-02-14T06:54:05.877Z,98052.22
2024-02-14T06:56:07.305Z,98054.72
2024-02-14T06:58:08.692Z,98057.28
2024-02-14T07:00:10.452Z,98057.31
2024-02-14T07:02:14.000Z,98056.50
2024-02-14T07:04:15.928Z,98065.00
2024-02-14T07:06:18.540Z,98061.66
2024-02-14T07:08:20.005Z,98061.66
2024-02-14T07:10:21.445Z,97905.56
2024-02-14T07:12:22.944Z,98067.63
2024-02-14T07:14:24.419Z,98070.19
2024-02-14T07:16:25.819Z,98071.88
2024-02-14T07:18:27.424Z,98064.25
2024-02-14T07:20:29.023Z,98069.34
2024-02-14T07:22:31.671Z,98073.53
2024-02-14T07:24:33.153Z,98071.81
2024-02-14T07:26:34.582Z,98068.47
2024-02-14T07:28:36.046Z,98070.06
2024-02-14T07:30:37.458Z,98074.31
2024-02-14T07:32:39.546Z,98068.34
2024-02-14T07:34:41.815Z,98072.56
2024-02-14T07:36:47.326Z,98074.31
2024-02-14T07:38:48.803Z,98069.19
2024-02-14T07:40:50.186Z,98070.84
2024-02-14T07:42:51.606Z,98075.13
2024-02-14T07:44:53.066Z,98067.44
2024-02-14T07:46:54.602Z,98067.38
2024-02-14T07:48:56.190Z,98069.00
2024-02-14T07:50:57.772Z,98062.13
2024-02-14T07:52:59.262Z,98057.84
2024-02-14T07:55:00.637Z,98065.53
2024-02-14T07:57:02.102Z,98064.63
2024-02-14T07:59:03.533Z,98065.44
2024-02-14T08:01:05.460Z,98068.84
2024-02-14T08:03:07.359Z,98067.13
2024-02-14T08:05:10.042Z,98060.31
2024-02-14T08:07:11.550Z,98062.88
2024-02-14T08:09:13.006Z,98073.09
2024-02-14T08:11:14.441Z,98057.03
2024-02-14T08:13:17.512Z,98055.28
2024-02-14T08:15:19.052Z,98056.03
2024-02-14T08:17:20.568Z,98052.66
2024-02-14T08:19:22.154Z,98056.75
2024-02-14T08:21:24.047Z,98047.44
2024-02-14T08:23:26.042Z,98050.56
2024-02-14T08:25:27.927Z,97925.59
2024-02-14T08:27:29.530Z,98058.28
2024-02-14T08:29:30.954Z,98049.22
2024-02-14T08:31:33.438Z,98042.50
2024-02-14T08:33:34.976Z,98031.69
2024-02-14T08:35:41.892Z,98026.41
2024-02-14T08:37:44.731Z,98025.63
2024-02-14T08:39:46.211Z,98028.09
2024-02-14T08:41:48.269Z,98013.84
2024-02-14T08:43:49.717Z,98004.41
2024-02-14T08:45:52.694Z,98009.94
2024-02-14T08:47:54.285Z,98008.00
2024-02-14T08:49:56.202Z,98005.25
2024-02-14T08:51:57.574Z,98003.41
2024-02-14T08:54:00.830Z,97993.06
2024-02-14T08:56:02.274Z,97987.88
2024-02-14T08:58:03.694Z,97986.72
2024-02-14T09:00:05.753Z,97989.03
2024-02-14T09:02:07.263Z,97984.44
2024-02-14T09:04:08.803Z,97985.34
2024-02-14T09:06:10.821Z,97994.59
2024-02-14T09:08:12.268Z,97997.69
2024-02-14T09:10:14.055Z,97984.84
2024-02-14T09:12:15.603Z,97981.84
2024-02-14T09:14:17.127Z,97979.81
2024-02-14T09:16:18.558Z,97982.59
2024-02-14T09:18:20.426Z,97990.88
2024-02-14T09:20:22.055Z,97986.69
2024-02-14T09:22:23.547Z,97986.91
2024-02-14T09:24:24.970Z,97971.88
2024-02-14T09:26:27.734Z,97974.09
2024-02-14T09:28:29.200Z,97978.91
2024-02-14T09:30:38.399Z,97976.66
2024-02-14T09:32:40.878Z,97978.03
2024-02-14T09:34:42.614Z,97977.16
2024-02-14T09:36:44.219Z,97975.66
2024-02-14T09:38:45.858Z,97966.50
2024-02-14T09:40:47.266Z,97975.56
2024-02-14T09:42:48.661Z,97966.50
2024-02-14T09:44:50.084Z,97974.53
2024-02-14T09:46:51.519Z,97976.19
2024-02-14T09:48:53.086Z,97982.56
2024-02-14T09:50:54.622Z,97989.47
2024-02-14T09:52:56.106Z,97985.19
2024-02-14T09:54:57.531Z,97990.66
2024-02-14T09:56:58.946Z,97987.53
2024-02-14T09:59:01.699Z,97986.94
2024-02-14T10:01:03.182Z,97986.59
2024-02-14T10:03:04.659Z,97991.28
2024-02-14T10:05:06.266Z,97986.66
2024-02-14T10:07:07.722Z,97999.75
2024-02-14T10:09:11.349Z,97989.59
2024-02-14T10:11:12.791Z,97988.06
2024-02-14T10:13:14.150Z,97988.34
2024-02-14T10:15:15.603Z,97986.91
2024-02-14T10:17:17.176Z,97990.44
2024-02-14T10:19:18.877Z,97980.22
2024-02-14T10:21:20.744Z,97982.78
2024-02-14T10:23:22.167Z,97973.53
2024-02-14T10:25:23.547Z,97971.81
2024-02-14T10:27:24.912Z,97977.81
2024-02-14T10:29:26.272Z,97976.88
2024-02-14T10:31:27.757Z,97977.75
2024-02-14T10:33:30.732Z,97976.00
2024-02-14T10:35:35.358Z,97972.63
2024-02-14T10:37:37.341Z,97977.03
2024-02-14T10:39:39.562Z,97975.09
2024-02-14T10:41:40.969Z,97973.75
2024-02-14T10:43:42.378Z,97975.63
2024-02-14T10:45:44.220Z,97974.97
2024-02-14T10:47:46.248Z,97975.06
2024-02-14T10:49:47.764Z,97968.38
2024-02-14T10:51:50.156Z,97970.13
2024-02-14T10:53:51.840Z,97963.38
2024-02-14T10:55:53.268Z,97816.00
2024-02-14T10:57:55.247Z,97950.75
2024-02-14T10:59:56.611Z,97957.59
2024-02-14T11:01:58.478Z,97962.72
2024-02-14T11:04:00.119Z,97956.75
2024-02-14T11:06:03.717Z,97960.97
2024-02-14T11:08:05.202Z,97949.00
2024-02-14T11:10:06.710Z,97952.38
2024-02-14T11:12:09.448Z,97953.22
2024-02-14T11:14:11.269Z,97950.59
2024-02-14T11:16:12.672Z,97948.00
2024-02-14T11:18:14.313Z,97947.97
2024-02-14T11:20:15.978Z,97941.09
2024-02-14T11:22:17.466Z,97943.63
2024-02-14T11:24:19.288Z,97940.25
2024-02-14T11:26:21.173Z,97948.84
2024-02-14T11:28:22.678Z,97941.97
2024-02-14T11:30:24.130Z,97934.25
2024-02-14T11:32:25.479Z,97946.13
2024-02-14T11:34:26.953Z,97936.72
2024-02-14T11:36:28.380Z,97937.31
2024-02-14T11:38:31.198Z,97943.91
2024-02-14T11:40:32.821Z,97934.41
2024-02-14T11:42:34.260Z,97930.09
2024-02-14T11:44:38.796Z,97934.41
2024-02-14T11:46:40.250Z,97929.44
2024-02-14T11:48:43.204Z,97927.72
2024-02-14T11:50:45.965Z,97931.22
2024-02-14T11:52:47.336Z,97928.75
2024-02-14T11:54:51.844Z,97932.19
2024-02-14T11:56:53.432Z,97934.06
2024-02-14T11:58:54.896Z,97935.84
2024-02-14T12:00:56.342Z,97933.38
2024-02-14T12:02:58.437Z,97930.91
2024-02-14T12:05:00.315Z,97929.22
2024-02-14T12:07:01.953Z,97936.19
2024-02-14T12:09:06.669Z,97929.44
2024-02-14T12:11:08.519Z,97929.47
2024-02-14T12:13:09.993Z,97946.31
2024-02-14T12:15:12.163Z,97940.22
2024-02-14T12:17:13.617Z,97942.78
2024-02-14T12:19:17.264Z,97939.38
2024-02-14T12:21:19.348Z,97934.00
2024-02-14T12:23:21.987Z,97937.78
2024-02-14T12:25:24.155Z,97938.25
2024-02-14T12:27:25.570Z,97936.22
2024-02-14T12:29:28.040Z,97933.13
2024-02-14T12:31:31.317Z,97929.88
2024-02-14T12:33:33.721Z,97924.03
2024-02-14T12:35:36.813Z,97937.78
2024-02-14T12:37:38.767Z,97936.16
2024-02-14T12:39:41.749Z,97937.03
2024-02-14T12:41:43.408Z,97935.38
2024-02-14T12:43:44.923Z,97811.56
2024-02-14T12:45:46.376Z,97944.75
2024-02-14T12:47:47.864Z,97942.16
2024-02-14T12:49:50.028Z,97941.28
2024-02-14T12:51:51.455Z,97946.31
2024-02-14T12:53:52.866Z,97945.41
2024-02-14T12:55:54.377Z,97942.78
2024-02-14T12:57:55.784Z,97937.66
2024-02-14T12:59:57.429Z,97938.44
2024-02-14T13:01:59.006Z,97933.25
2024-02-14T13:04:01.668Z,97936.63
2024-02-14T13:06:03.168Z,97932.31
2024-02-14T13:08:04.630Z,97934.06
2024-02-14T13:10:06.099Z,97937.47
2024-02-14T13:12:10.861Z,97936.59
2024-02-14T13:14:12.426Z,97940.81
2024-02-14T13:16:13.797Z,97939.94
2024-02-14T13:18:15.493Z,97937.44
2024-02-14T13:20:17.669Z,97942.63
2024-02-14T13:22:19.126Z,97933.31
2024-02-14T13:24:20.682Z,97940.16
2024-02-14T13:26:22.094Z,97941.97
2024-02-14T13:28:23.467Z,97945.34
2024-02-14T13:30:25.330Z,97942.06
2024-02-14T13:32:26.709Z,97948.03
2024-02-14T13:34:28.729Z,97936.22
2024-02-14T13:36:30.191Z,97935.41
2024-02-14T13:38:31.700Z,97941.44
2024-02-14T13:40:33.163Z,97941.47
2024-02-14T13:42:34.780Z,97942.41
2024-02-14T13:44:36.218Z,97944.16
2024-02-14T13:46:37.745Z,97929.75
2024-02-14T13:48:39.274Z,97940.03
2024-02-14T13:50:40.860Z,97940.06
2024-02-14T13:52:42.356Z,97940.13
2024-02-14T13:54:43.819Z,97937.56
2024-02-14T13:56:45.371Z,97941.88
2024-02-14T13:58:46.800Z,97927.44
2024-02-14T14:00:48.188Z,97941.03
2024-02-14T14:02:49.617Z,97941.09
2024-02-14T14:04:51.764Z,97946.22
2024-02-14T14:06:53.301Z,97935.19
2024-02-14T14:08:55.624Z,97944.50
2024-02-14T14:10:57.047Z,97937.75
2024-02-14T14:12:58.413Z,97935.19
2024-02-14T14:14:59.841Z,97945.41
2024-02-14T14:17:01.339Z,97937.75
2024-02-14T14:19:02.985Z,97947.91
2024-02-14T14:21:04.893Z,97952.16
2024-02-14T14:23:07.258Z,97947.06
2024-02-14T14:25:09.461Z,97956.34
2024-02-14T14:27:14.842Z,97960.50
2024-02-14T14:29:16.764Z,97959.63
2024-02-14T14:31:18.243Z,97960.47
2024-02-14T14:33:20.087Z,97955.31
2024-02-14T14:35:21.608Z,97960.41
2024-02-14T14:37:24.009Z,97962.97
2024-02-14T14:39:25.382Z,97971.44
2024-02-14T14:41:26.841Z,97980.72
2024-02-14T14:43:29.107Z,97974.72
2024-02-14T14:45:32.082Z,97978.16
2024-02-14T14:47:33.715Z,97977.28
2024-02-14T14:49:35.655Z,97967.06
2024-02-14T14:51:37.258Z,97975.53
2024-02-14T14:53:38.882Z,97985.84
2024-02-14T14:55:40.295Z,97990.94
2024-02-14T14:57:42.459Z,97983.22
2024-02-14T14:59:44.680Z,97989.19
2024-02-14T15:01:46.156Z,97984.06
2024-02-14T15:03:47.669Z,97990.91
2024-02-14T15:05:49.431Z,97992.66
2024-02-14T15:07:51.333Z,97987.56
2024-02-14T15:09:52.762Z,97997.78
2024-02-14T15:11:54.300Z,97992.72
2024-02-14T15:13:55.872Z,97985.91
2024-02-14T15:15:59.099Z,97988.53
2024-02-14T15:18:00.794Z,97987.69
2024-02-14T15:20:04.336Z,97978.38
2024-02-14T15:22:06.061Z,97985.19
2024-02-14T15:24:08.073Z,97987.84
2024-02-14T15:26:13.232Z,97994.63
2024-02-14T15:28:27.437Z,97989.56
2024-02-14T15:30:47.975Z,97987.03
2024-02-14T15:33:08.184Z,97984.53
2024-02-14T15:35:10.229Z,97991.34
2024-02-14T15:37:11.724Z,97993.91
2024-02-14T15:39:14.639Z,97994.75
2024-02-14T15:41:16.221Z,97989.66
2024-02-14T15:43:17.644Z,97984.59
2024-02-14T15:45:19.240Z,97995.69
2024-02-14T15:47:20.984Z,97997.41
2024-02-14T15:49:22.345Z,97995.69
2024-02-14T15:51:25.528Z,98010.19
2024-02-14T15:53:28.154Z,98004.25
2024-02-14T15:55:29.707Z,97999.13
2024-02-14T15:57:32.164Z,98002.53
2024-02-14T15:59:34.082Z,98010.25
2024-02-14T16:01:35.524Z,98015.34
2024-02-14T16:03:36.877Z,98010.25
2024-02-14T16:05:38.369Z,98023.03
2024-02-14T16:07:40.041Z,98021.34
2024-02-14T16:09:41.391Z,98017.06
2024-02-14T16:11:43.643Z,98016.22
2024-02-14T16:13:45.070Z,98013.66
2024-02-14T16:15:46.509Z,98017.06
2024-02-14T16:17:48.075Z,98020.47
2024-02-14T16:19:49.549Z,98025.66
2024-02-14T16:21:59.059Z,98024.91
2024-02-14T16:24:08.107Z,98019.91
2024-02-14T16:26:09.519Z,98021.78
2024-02-14T16:28:10.930Z,98021.91
2024-02-14T16:30:12.398Z,98019.47
2024-02-14T16:32:13.765Z,98025.53
2024-02-14T16:34:15.319Z,98026.50
2024-02-14T16:36:16.828Z,98027.47
2024-02-14T16:38:18.918Z,98031.75
2024-02-14T16:40:20.428Z,98043.63
2024-02-14T16:42:21.824Z,98046.13
2024-02-14T16:44:23.211Z,98045.22
2024-02-14T16:46:24.816Z,98049.34
2024-02-14T16:48:26.351Z,98042.44
2024-02-14T16:50:30.010Z,98033.88
2024-02-14T16:52:31.522Z,98045.66
2024-02-14T16:54:33.292Z,98035.41
2024-02-14T16:56:34.975Z,98037.00
2024-02-14T16:58:36.389Z,98041.19
2024-02-14T17:00:38.008Z,98038.50
2024-02-14T17:02:40.736Z,98041.00
2024-02-14T17:04:42.250Z,98032.47
2024-02-14T17:06:43.923Z,98037.53
2024-02-14T17:08:46.366Z,98034.88
2024-02-14T17:10:47.761Z,98039.09
2024-02-14T17:12:49.141Z,98039.03
2024-02-14T17:14:50.722Z,98042.44
2024-02-14T17:16:56.731Z,98035.56
2024-02-14T17:18:58.290Z,98043.22
2024-02-14T17:20:59.851Z,98038.97
2024-02-14T17:23:01.908Z,98038.09
2024-02-14T17:25:03.286Z,98044.84
2024-02-14T17:27:04.733Z,97911.47
2024-02-14T17:29:06.312Z,98038.09
2024-02-14T17:31:07.665Z,98035.56
2024-02-14T17:33:09.133Z,98034.72
2024-02-14T17:35:10.891Z,98045.78
2024-02-14T17:37:12.398Z,98048.34
2024-02-14T17:39:14.055Z,98044.13
2024-02-14T17:41:15.494Z,98043.28
2024-02-14T17:43:17.181Z,98049.25
2024-02-14T17:45:19.795Z,98049.31
2024-02-14T17:47:21.875Z,98041.63
2024-02-14T17:49:23.430Z,98048.41
2024-02-14T17:51:24.882Z,98043.34
2024-02-14T17:53:28.285Z,98045.94
2024-02-14T17:55:29.704Z,98048.53
2024-02-14T17:57:31.076Z,98046.81
2024-02-14T17:59:32.975Z,98049.47
2024-02-14T18:01:35.444Z,98057.16
2024-02-14T18:03:36.812Z,98054.63
2024-02-14T18:05:41.990Z,98052.13
2024-02-14T18:07:43.604Z,98059.78
2024-02-14T18:09:44.980Z,98060.69
2024-02-14T18:11:46.362Z,98052.25
2024-02-14T18:13:53.519Z,98049.69
2024-02-14T18:15:54.988Z,98053.09
2024-02-14T18:17:56.484Z,98044.63
2024-02-14T18:19:58.041Z,98048.91
2024-02-14T18:21:59.489Z,98055.72
2024-02-14T18:24:01.048Z,98046.34
2024-02-14T18:26:02.433Z,98052.31
2024-02-14T18:28:04.230Z,98051.47
2024-02-14T18:30:05.874Z,98057.41
2024-02-14T18:32:09.478Z,98062.50
2024-02-14T18:34:11.131Z,98058.25
2024-02-14T18:36:12.747Z,98061.63
2024-02-14T18:38:14.755Z,98054.84
2024-02-14T18:40:16.176Z,98058.22
2024-02-14T18:42:17.618Z,98054.81
2024-02-14T18:44:19.074Z,98053.94
2024-02-14T18:46:20.548Z,98052.19
2024-02-14T18:48:22.188Z,98059.00
2024-02-14T18:50:23.631Z,98059.00
2024-02-14T18:52:27.917Z,98055.53
2024-02-14T18:54:31.123Z,98052.13
2024-02-14T18:56:33.715Z,98063.19
2024-02-14T18:58:35.120Z,98065.69
2024-02-14T19:00:36.569Z,98064.91
2024-02-14T19:02:38.816Z,98062.28
2024-02-14T19:04:40.198Z,98063.13
2024-02-14T19:06:42.206Z,98058.03
2024-02-14T19:08:43.759Z,98052.06
2024-02-14T19:10:45.212Z,98047.81
2024-02-14T19:12:46.588Z,98055.47
2024-02-14T19:14:50.269Z,98062.28
2024-02-14T19:16:51.906Z,98061.38
2024-02-14T19:18:53.676Z,98070.78
2024-02-14T19:20:55.390Z,98067.34
2024-02-14T19:22:57.030Z,98075.91
2024-02-14T19:24:58.390Z,98068.22
2024-02-14T19:26:59.864Z,98064.81
2024-02-14T19:29:02.752Z,98053.72
2024-02-14T19:31:05.112Z,98058.03
2024-02-14T19:33:06.661Z,98048.63
2024-02-14T19:35:08.099Z,98052.84
2024-02-14T19:37:10.211Z,98053.69
2024-02-14T19:39:14.259Z,98049.47
2024-02-14T19:41:15.736Z,98042.63
2024-02-14T19:43:31.786Z,97883.13
2024-02-14T19:45:38.095Z,98046.97
2024-02-14T19:47:39.790Z,98044.38
2024-02-14T19:49:42.510Z,98043.56
2024-02-14T19:51:44.724Z,98046.06
2024-02-14T19:53:46.182Z,98045.25
2024-02-14T19:55:47.564Z,98042.69
2024-02-14T19:57:50.000Z,98045.31
2024-02-14T19:59:51.440Z,98045.25
2024-02-14T20:01:53.140Z,98046.13
2024-02-14T20:03:57.948Z,98040.19
2024-02-14T20:05:59.760Z,98041.91
2024-02-14T20:08:01.233Z,98050.41
2024-02-14T20:10:04.596Z,98048.78
2024-02-14T20:12:06.427Z,98051.22
2024-02-14T20:14:10.015Z,98051.28
2024-02-14T20:16:11.459Z,98060.66
2024-02-14T20:18:15.312Z,98057.28
2024-02-14T20:20:18.503Z,98064.09
2024-02-14T20:22:20.929Z,98066.59
2024-02-14T20:24:22.456Z,98064.09
2024-02-14T20:26:24.308Z,98067.44
2024-02-14T20:28:26.013Z,98067.50
2024-02-14T20:30:30.773Z,98070.00
2024-02-14T20:32:32.509Z,98071.75
2024-02-14T20:34:33.970Z,98064.09
2024-02-14T20:36:37.659Z,98063.19
2024-02-14T20:38:39.689Z,98065.81
2024-02-14T20:40:41.152Z,98064.97
2024-02-14T20:42:43.015Z,98064.97
2024-02-14T20:44:44.812Z,98066.66
2024-02-14T20:46:52.121Z,98065.81
2024-02-14T20:48:54.204Z,98062.41
2024-02-14T20:50:55.936Z,98070.13
2024-02-14T20:52:57.390Z,98065.81
2024-02-14T20:54:58.905Z,98070.06
2024-02-14T20:57:00.781Z,98077.69
2024-02-14T20:59:10.749Z,98076.88
2024-02-14T21:01:18.323Z,98073.41
2024-02-14T21:03:19.798Z,98081.09
2024-02-14T21:05:21.196Z,98077.72
2024-02-14T21:07:22.686Z,98077.72
2024-02-14T21:09:24.102Z,98080.22
2024-02-14T21:11:25.507Z,98080.28
2024-02-14T21:13:27.320Z,98078.56
2024-02-14T21:15:30.484Z,98070.03
2024-02-14T21:17:32.465Z,98076.03
2024-02-14T21:19:34.168Z,98075.09
2024-02-14T21:21:36.735Z,98081.94
2024-02-14T21:23:38.431Z,98072.56
2024-02-14T21:25:39.877Z,98081.09
2024-02-14T21:27:41.301Z,98076.03
2024-02-14T21:29:44.470Z,98088.00
2024-02-14T21:31:45.980Z,98086.22
2024-02-14T21:33:48.076Z,98091.28
2024-02-14T21:35:51.030Z,98082.78
2024-02-14T21:37:52.530Z,98078.56
2024-02-14T21:39:53.890Z,98073.47
2024-02-14T21:41:55.313Z,98067.44
2024-02-14T21:43:56.747Z,98061.53
2024-02-14T21:45:59.095Z,98061.50
2024-02-14T21:48:02.127Z,98057.25
2024-02-14T21:50:04.181Z,98066.59
2024-02-14T21:52:08.153Z,98064.03
2024-02-14T21:54:09.620Z,98064.97
2024-02-14T21:56:10.998Z,98075.16
2024-02-14T21:58:12.440Z,98070.06
2024-02-14T22:00:13.989Z,98065.75
2024-02-14T22:02:15.558Z,98071.75
2024-02-14T22:04:17.796Z,98064.13
2024-02-14T22:06:19.322Z,98059.06
2024-02-14T22:08:20.738Z,98062.41
2024-02-14T22:10:23.278Z,98061.56
2024-02-14T22:12:24.702Z,98065.81
2024-02-14T22:14:26.168Z,98071.78
2024-02-14T22:16:27.552Z,98075.97
2024-02-14T22:18:29.268Z,98070.03
2024-02-14T22:20:32.080Z,98071.78
2024-02-14T22:22:34.618Z,98069.50
2024-02-14T22:24:36.034Z,98069.59
2024-02-14T22:26:37.478Z,98065.19
2024-02-14T22:28:39.170Z,98057.44
2024-02-14T22:30:53.966Z,98059.53
2024-02-14T22:32:55.618Z,98063.81
2024-02-14T22:34:57.063Z,98060.00
2024-02-14T22:36:58.430Z,98059.41
2024-02-14T22:39:00.085Z,98063.25
2024-02-14T22:41:02.068Z,98065.78
2024-02-14T22:43:08.731Z,98059.81
2024-02-14T22:45:11.783Z,98072.81
2024-02-14T22:47:13.433Z,98071.25
2024-02-14T22:49:14.884Z,98056.97
2024-02-14T22:51:17.912Z,98057.59
2024-02-14T22:53:19.263Z,98064.03
2024-02-14T22:55:20.673Z,98066.22
2024-02-14T22:57:22.027Z,98075.06
2024-02-14T22:59:23.728Z,98071.56
2024-02-14T23:01:25.168Z,98069.16
2024-02-14T23:03:26.720Z,98069.03
2024-02-14T23:05:28.607Z,98070.66
2024-02-14T23:07:31.118Z,98063.19
2024-02-14T23:09:32.513Z,97919.16
2024-02-14T23:11:33.939Z,98062.41
2024-02-14T23:13:35.431Z,98062.69
2024-02-14T23:15:37.008Z,98063.31
2024-02-14T23:17:38.466Z,98069.91
2024-02-14T23:19:40.492Z,98057.13
2024-02-14T23:21:42.140Z,98065.97
2024-02-14T23:23:43.520Z,98075.38
2024-02-14T23:25:47.823Z,98073.72
2024-02-14T23:27:49.399Z,98066.94
2024-02-14T23:29:51.052Z,98069.53
2024-02-14T23:31:52.458Z,98065.25
2024-02-14T23:33:54.002Z,98064.38
2024-02-14T23:35:57.355Z,98057.50
2024-02-14T23:37:58.758Z,98059.28
2024-02-14T23:42:04.323Z,98067.16
2024-02-14T23:44:05.869Z,98064.41
2024-02-14T23:46:07.230Z,98057.38
2024-02-14T23:48:08.730Z,98063.22
2024-02-14T23:50:11.671Z,97911.19
2024-02-14T23:52:13.596Z,98067.03
2024-02-14T23:54:15.597Z,98069.81
2024-02-14T23:56:17.049Z,98069.94